South Plainfield, New Jersey
Current Conditions -  °F | °C
As of 9:55 AM on Saturday 01 Nov 2014 (Local Time) from KLDJ Reporting Station
Light Rain Light Rain  
Wind Chill: 45°   Ceiling: 4300
Heat Index: 48°   Visibility: 10mi
Dew Point: 43°   Wind: 8mph
Humidity: 80%   Direction: 20°NNE
Pressure: 29.88"   Gusts: NA
Location:  40.58°N, 74.42°W
Report Text: KLDJ 011355Z AUTO 02007KT 10SM -RA BKN043 OVC049 09/06 A2988 RMK AO2 P0003 T00910059
Loading
Personal Weather Stations






























Interactive Weather Map
Tropical Storm Tracking
New forecast layout! Learn more

10-Day Weather Forecast

Advertisements
Track Severe Weather on mobile